sensor_id;sensor_type;location;lat;lon;timestamp;pressure;altitude;pressure_sealevel;temperature;humidity
39301;BME280;25019;42.626;23.380;2023-02-03T00:01:45;94621.06;;;1.07;100.00
39301;BME280;25019;42.626;23.380;2023-02-03T00:04:10;94561.78;;;0.62;100.00
39301;BME280;25019;42.626;23.380;2023-02-03T00:06:36;94626.75;;;0.95;100.00
39301;BME280;25019;42.626;23.380;2023-02-03T00:09:02;94632.88;;;1.02;100.00
39301;BME280;25019;42.626;23.380;2023-02-03T00:11:29;94626.41;;;0.98;100.00
39301;BME280;25019;42.626;23.380;2023-02-03T00:13:55;94583.25;;;0.57;100.00
39301;BME280;25019;42.626;23.380;2023-02-03T00:16:21;94552.19;;;0.33;100.00
39301;BME280;25019;42.626;23.380;2023-02-03T00:18:46;94593.44;;;0.52;100.00
39301;BME280;25019;42.626;23.380;2023-02-03T00:21:12;94550.09;;;0.13;100.00
39301;BME280;25019;42.626;23.380;2023-02-03T00:23:40;94636.50;;;0.71;100.00
39301;BME280;25019;42.626;23.380;2023-02-03T00:26:10;94638.84;;;0.66;100.00
39301;BME280;25019;42.626;23.380;2023-02-03T00:28:37;94581.44;;;0.28;100.00
39301;BME280;25019;42.626;23.380;2023-02-03T00:31:03;94651.66;;;0.61;100.00
39301;BME280;25019;42.626;23.380;2023-02-03T00:33:29;94663.44;;;0.57;100.00
39301;BME280;25019;42.626;23.380;2023-02-03T00:35:54;94650.94;;;0.52;100.00
39301;BME280;25019;42.626;23.380;2023-02-03T00:38:20;94607.03;;;0.18;100.00
39301;BME280;25019;42.626;23.380;2023-02-03T00:40:52;94661.00;;;0.40;100.00
39301;BME280;25019;42.626;23.380;2023-02-03T00:43:19;94668.75;;;0.34;100.00
39301;BME280;25019;42.626;23.380;2023-02-03T00:45:44;94664.53;;;0.33;100.00
39301;BME280;25019;42.626;23.380;2023-02-03T00:48:10;94595.88;;;-0.14;100.00
39301;BME280;25019;42.626;23.380;2023-02-03T00:50:36;94680.19;;;0.33;100.00
39301;BME280;25019;42.626;23.380;2023-02-03T00:53:02;94669.28;;;0.29;100.00
39301;BME280;25019;42.626;23.380;2023-02-03T00:55:28;94673.69;;;0.28;100.00
39301;BME280;25019;42.626;23.380;2023-02-03T00:57:53;94675.78;;;0.33;100.00
39301;BME280;25019;42.626;23.380;2023-02-03T01:00:19;94677.25;;;0.36;100.00
39301;BME280;25019;42.626;23.380;2023-02-03T01:02:45;94634.47;;;-0.02;100.00
39301;BME280;25019;42.626;23.380;2023-02-03T01:05:12;94653.06;;;0.19;100.00
39301;BME280;25019;42.626;23.380;2023-02-03T01:07:38;94683.25;;;0.36;100.00
39301;BME280;25019;42.626;23.380;2023-02-03T01:10:04;94657.09;;;0.21;100.00
39301;BME280;25019;42.626;23.380;2023-02-03T01:12:32;94693.78;;;0.28;100.00
39301;BME280;25019;42.626;23.380;2023-02-03T01:14:58;94697.91;;;0.22;100.00
39301;BME280;25019;42.626;23.380;2023-02-03T01:17:24;94683.81;;;0.08;100.00
39301;BME280;25019;42.626;23.380;2023-02-03T01:19:50;94614.81;;;-0.36;100.00
39301;BME280;25019;42.626;23.380;2023-02-03T01:22:16;94624.47;;;-0.36;100.00
39301;BME280;25019;42.626;23.380;2023-02-03T01:24:42;94688.69;;;0.11;100.00
39301;BME280;25019;42.626;23.380;2023-02-03T01:27:08;94688.06;;;0.09;100.00
39301;BME280;25019;42.626;23.380;2023-02-03T01:29:34;94683.56;;;0.18;100.00
39301;BME280;25019;42.626;23.380;2023-02-03T01:31:59;94676.47;;;0.12;100.00
39301;BME280;25019;42.626;23.380;2023-02-03T01:34:26;94664.56;;;0.09;100.00
39301;BME280;25019;42.626;23.380;2023-02-03T01:36:52;94672.69;;;0.14;100.00
39301;BME280;25019;42.626;23.380;2023-02-03T01:39:17;94622.41;;;-0.26;100.00
39301;BME280;25019;42.626;23.380;2023-02-03T01:41:44;94684.75;;;0.16;100.00
39301;BME280;25019;42.626;23.380;2023-02-03T01:44:39;94686.03;;;0.20;100.00
39301;BME280;25019;42.626;23.380;2023-02-03T01:47:29;94699.09;;;0.20;100.00
39301;BME280;25019;42.626;23.380;2023-02-03T01:50:05;94701.06;;;0.18;100.00
39301;BME280;25019;42.626;23.380;2023-02-03T01:52:34;94703.19;;;0.14;100.00
39301;BME280;25019;42.626;23.380;2023-02-03T01:55:03;94701.75;;;0.11;100.00
39301;BME280;25019;42.626;23.380;2023-02-03T01:57:33;94639.97;;;-0.20;100.00
39301;BME280;25019;42.626;23.380;2023-02-03T02:00:03;94691.25;;;0.20;100.00
39301;BME280;25019;42.626;23.380;2023-02-03T02:02:39;94689.63;;;0.19;100.00
39301;BME280;25019;42.626;23.380;2023-02-03T02:05:14;94704.13;;;0.21;100.00
39301;BME280;25019;42.626;23.380;2023-02-03T02:07:42;94694.22;;;0.17;100.00
39301;BME280;25019;42.626;23.380;2023-02-03T02:10:09;94701.66;;;0.05;100.00
39301;BME280;25019;42.626;23.380;2023-02-03T02:12:35;94713.38;;;0.09;100.00
39301;BME280;25019;42.626;23.380;2023-02-03T02:15:01;94713.13;;;0.19;100.00
39301;BME280;25019;42.626;23.380;2023-02-03T02:17:53;94712.94;;;0.20;100.00
39301;BME280;25019;42.626;23.380;2023-02-03T02:23:35;94713.94;;;0.19;100.00
39301;BME280;25019;42.626;23.380;2023-02-03T02:26:21;94716.75;;;0.18;100.00
39301;BME280;25019;42.626;23.380;2023-02-03T02:29:04;94712.06;;;0.13;100.00
39301;BME280;25019;42.626;23.380;2023-02-03T02:31:56;94714.47;;;0.14;100.00
39301;BME280;25019;42.626;23.380;2023-02-03T02:40:09;94712.22;;;0.11;100.00
39301;BME280;25019;42.626;23.380;2023-02-03T02:45:49;94718.75;;;0.07;100.00
39301;BME280;25019;42.626;23.380;2023-02-03T02:48:24;94717.31;;;0.05;100.00
39301;BME280;25019;42.626;23.380;2023-02-03T02:50:54;94706.78;;;-0.02;100.00
39301;BME280;25019;42.626;23.380;2023-02-03T02:53:24;94704.31;;;-0.04;100.00
39301;BME280;25019;42.626;23.380;2023-02-03T02:55:52;94693.94;;;-0.12;100.00
39301;BME280;25019;42.626;23.380;2023-02-03T02:58:22;94717.03;;;-0.01;100.00
39301;BME280;25019;42.626;23.380;2023-02-03T03:00:49;94614.06;;;-0.68;100.00
39301;BME280;25019;42.626;23.380;2023-02-03T03:03:20;94725.41;;;-0.05;100.00
39301;BME280;25019;42.626;23.380;2023-02-03T03:05:58;94721.50;;;-0.09;100.00
39301;BME280;25019;42.626;23.380;2023-02-03T03:08:48;94699.91;;;-0.26;100.00
39301;BME280;25019;42.626;23.380;2023-02-03T03:11:17;94725.25;;;-0.12;100.00
39301;BME280;25019;42.626;23.380;2023-02-03T03:13:47;94681.22;;;-0.38;100.00
39301;BME280;25019;42.626;23.380;2023-02-03T03:16:15;94734.91;;;-0.12;100.00
39301;BME280;25019;42.626;23.380;2023-02-03T03:18:45;94723.38;;;-0.18;100.00
39301;BME280;25019;42.626;23.380;2023-02-03T03:21:19;94730.31;;;-0.10;100.00
39301;BME280;25019;42.626;23.380;2023-02-03T03:23:48;94734.06;;;-0.13;100.00
39301;BME280;25019;42.626;23.380;2023-02-03T03:26:58;94737.72;;;-0.14;100.00
39301;BME280;25019;42.626;23.380;2023-02-03T03:29:25;94737.72;;;-0.14;100.00
39301;BME280;25019;42.626;23.380;2023-02-03T03:31:55;94699.09;;;-0.50;100.00
39301;BME280;25019;42.626;23.380;2023-02-03T03:34:20;94605.16;;;-1.05;100.00
39301;BME280;25019;42.626;23.380;2023-02-03T03:37:01;94743.28;;;-0.17;100.00
39301;BME280;25019;42.626;23.380;2023-02-03T03:39:46;94753.53;;;-0.16;100.00
39301;BME280;25019;42.626;23.380;2023-02-03T03:42:23;94744.53;;;-0.13;100.00
39301;BME280;25019;42.626;23.380;2023-02-03T03:45:13;94766.25;;;-0.12;100.00
39301;BME280;25019;42.626;23.380;2023-02-03T03:47:48;94768.66;;;-0.11;100.00
39301;BME280;25019;42.626;23.380;2023-02-03T03:50:22;94770.94;;;-0.08;100.00
39301;BME280;25019;42.626;23.380;2023-02-03T03:52:50;94757.56;;;-0.13;100.00
39301;BME280;25019;42.626;23.380;2023-02-03T03:55:18;94778.44;;;-0.05;100.00
39301;BME280;25019;42.626;23.380;2023-02-03T03:58:05;94774.19;;;-0.06;100.00
39301;BME280;25019;42.626;23.380;2023-02-03T04:00:34;94776.31;;;-0.01;100.00
39301;BME280;25019;42.626;23.380;2023-02-03T04:03:16;94705.41;;;-0.44;100.00
39301;BME280;25019;42.626;23.380;2023-02-03T04:05:44;94761.66;;;-0.10;100.00
39301;BME280;25019;42.626;23.380;2023-02-03T04:08:09;94755.78;;;-0.12;100.00
39301;BME280;25019;42.626;23.380;2023-02-03T04:10:37;94767.81;;;-0.03;100.00
39301;BME280;25019;42.626;23.380;2023-02-03T04:13:03;94788.78;;;0.12;100.00
39301;BME280;25019;42.626;23.380;2023-02-03T04:15:30;94788.78;;;0.12;100.00
39301;BME280;25019;42.626;23.380;2023-02-03T04:17:56;94792.84;;;0.14;100.00
39301;BME280;25019;42.626;23.380;2023-02-03T04:20:23;94805.91;;;0.14;100.00
39301;BME280;25019;42.626;23.380;2023-02-03T04:22:49;94797.75;;;0.09;100.00
39301;BME280;25019;42.626;23.380;2023-02-03T04:25:15;94801.25;;;0.02;100.00
39301;BME280;25019;42.626;23.380;2023-02-03T04:27:41;94816.56;;;0.05;100.00
39301;BME280;25019;42.626;23.380;2023-02-03T04:30:07;94822.59;;;0.05;100.00
39301;BME280;25019;42.626;23.380;2023-02-03T04:32:34;94729.22;;;-0.48;100.00
39301;BME280;25019;42.626;23.380;2023-02-03T04:35:00;94814.25;;;0.10;100.00
39301;BME280;25019;42.626;23.380;2023-02-03T04:37:26;94811.16;;;0.06;100.00
39301;BME280;25019;42.626;23.380;2023-02-03T04:39:53;94799.16;;;-0.03;100.00
39301;BME280;25019;42.626;23.380;2023-02-03T04:42:20;94812.00;;;0.07;100.00
39301;BME280;25019;42.626;23.380;2023-02-03T04:44:46;94735.91;;;-0.45;100.00
39301;BME280;25019;42.626;23.380;2023-02-03T04:47:12;94819.34;;;0.03;100.00
39301;BME280;25019;42.626;23.380;2023-02-03T04:49:37;94740.84;;;-0.50;100.00
39301;BME280;25019;42.626;23.380;2023-02-03T04:52:03;94827.53;;;0.00;100.00
39301;BME280;25019;42.626;23.380;2023-02-03T04:54:29;94843.69;;;0.04;100.00
39301;BME280;25019;42.626;23.380;2023-02-03T04:56:55;94806.38;;;-0.13;100.00
39301;BME280;25019;42.626;23.380;2023-02-03T04:59:20;94839.91;;;0.06;100.00
39301;BME280;25019;42.626;23.380;2023-02-03T05:01:46;94783.78;;;-0.29;100.00
39301;BME280;25019;42.626;23.380;2023-02-03T05:04:11;94848.56;;;0.07;100.00
39301;BME280;25019;42.626;23.380;2023-02-03T05:06:37;94851.63;;;0.10;100.00
39301;BME280;25019;42.626;23.380;2023-02-03T05:09:02;94852.16;;;0.06;100.00
39301;BME280;25019;42.626;23.380;2023-02-03T05:11:28;94840.13;;;-0.04;100.00
39301;BME280;25019;42.626;23.380;2023-02-03T05:13:54;94850.53;;;0.05;100.00
39301;BME280;25019;42.626;23.380;2023-02-03T05:16:20;94859.00;;;0.07;100.00
39301;BME280;25019;42.626;23.380;2023-02-03T05:18:46;94796.50;;;-0.26;100.00
39301;BME280;25019;42.626;23.380;2023-02-03T05:21:11;94868.63;;;0.06;100.00
39301;BME280;25019;42.626;23.380;2023-02-03T05:23:37;94863.09;;;0.01;100.00
39301;BME280;25019;42.626;23.380;2023-02-03T05:26:03;94875.13;;;0.10;100.00
39301;BME280;25019;42.626;23.380;2023-02-03T05:28:29;94811.06;;;-0.32;100.00
39301;BME280;25019;42.626;23.380;2023-02-03T05:30:57;94880.03;;;0.13;100.00
39301;BME280;25019;42.626;23.380;2023-02-03T05:33:23;94868.81;;;0.05;100.00
39301;BME280;25019;42.626;23.380;2023-02-03T05:35:49;94834.91;;;-0.12;100.00
39301;BME280;25019;42.626;23.380;2023-02-03T05:38:14;94799.34;;;-0.44;100.00
39301;BME280;25019;42.626;23.380;2023-02-03T05:40:40;94869.16;;;0.02;100.00
39301;BME280;25019;42.626;23.380;2023-02-03T05:43:24;94869.66;;;-0.03;100.00
39301;BME280;25019;42.626;23.380;2023-02-03T05:45:50;94876.38;;;-0.09;100.00
39301;BME280;25019;42.626;23.380;2023-02-03T05:48:15;94879.31;;;-0.12;100.00
39301;BME280;25019;42.626;23.380;2023-02-03T05:50:41;94878.69;;;-0.14;100.00
39301;BME280;25019;42.626;23.380;2023-02-03T05:53:07;94833.28;;;-0.53;100.00
39301;BME280;25019;42.626;23.380;2023-02-03T05:55:33;94884.75;;;-0.22;100.00
39301;BME280;25019;42.626;23.380;2023-02-03T05:57:59;94876.91;;;-0.22;100.00
39301;BME280;25019;42.626;23.380;2023-02-03T06:00:26;94881.78;;;-0.19;100.00
39301;BME280;25019;42.626;23.380;2023-02-03T06:02:59;94793.59;;;-0.80;100.00
39301;BME280;25019;42.626;23.380;2023-02-03T06:05:27;94864.72;;;-0.29;100.00
39301;BME280;25019;42.626;23.380;2023-02-03T06:07:53;94881.81;;;-0.27;100.00
39301;BME280;25019;42.626;23.380;2023-02-03T06:10:19;94879.19;;;-0.27;100.00
39301;BME280;25019;42.626;23.380;2023-02-03T06:12:45;94883.28;;;-0.24;100.00
39301;BME280;25019;42.626;23.380;2023-02-03T06:15:11;94881.00;;;-0.27;100.00
39301;BME280;25019;42.626;23.380;2023-02-03T06:17:37;94882.63;;;-0.18;100.00
39301;BME280;25019;42.626;23.380;2023-02-03T06:20:06;94890.75;;;-0.13;100.00
39301;BME280;25019;42.626;23.380;2023-02-03T06:22:33;94866.66;;;-0.23;100.00
39301;BME280;25019;42.626;23.380;2023-02-03T06:24:59;94896.75;;;-0.04;100.00
39301;BME280;25019;42.626;23.380;2023-02-03T06:27:25;94895.59;;;-0.02;100.00
39301;BME280;25019;42.626;23.380;2023-02-03T06:29:50;94843.19;;;-0.40;100.00
39301;BME280;25019;42.626;23.380;2023-02-03T06:32:16;94908.31;;;0.02;100.00
39301;BME280;25019;42.626;23.380;2023-02-03T06:34:42;94901.94;;;0.04;100.00
39301;BME280;25019;42.626;23.380;2023-02-03T06:37:08;94907.06;;;0.52;100.00
39301;BME280;25019;42.626;23.380;2023-02-03T06:39:34;94907.06;;;0.52;100.00
39301;BME280;25019;42.626;23.380;2023-02-03T06:42:00;94899.00;;;0.62;100.00
39301;BME280;25019;42.626;23.380;2023-02-03T06:44:25;94890.09;;;0.48;100.00
39301;BME280;25019;42.626;23.380;2023-02-03T06:46:51;94919.16;;;0.53;100.00
39301;BME280;25019;42.626;23.380;2023-02-03T06:49:17;94798.50;;;-0.05;100.00
39301;BME280;25019;42.626;23.380;2023-02-03T06:51:43;94904.88;;;0.64;97.97
39301;BME280;25019;42.626;23.380;2023-02-03T06:54:10;94908.00;;;0.59;99.12
39301;BME280;25019;42.626;23.380;2023-02-03T06:56:36;94905.56;;;0.58;97.45
39301;BME280;25019;42.626;23.380;2023-02-03T06:59:02;94904.31;;;0.54;98.00
39301;BME280;25019;42.626;23.380;2023-02-03T07:01:28;94902.03;;;0.51;98.21
39301;BME280;25019;42.626;23.380;2023-02-03T07:03:54;94915.09;;;0.51;98.06
39301;BME280;25019;42.626;23.380;2023-02-03T07:06:25;94851.94;;;0.16;98.18
39301;BME280;25019;42.626;23.380;2023-02-03T07:08:54;94903.66;;;0.52;98.07
39301;BME280;25019;42.626;23.380;2023-02-03T07:11:21;94888.63;;;0.54;99.23
39301;BME280;25019;42.626;23.380;2023-02-03T07:13:47;94913.78;;;0.55;98.42
39301;BME280;25019;42.626;23.380;2023-02-03T07:16:13;94902.03;;;0.51;99.05
39301;BME280;25019;42.626;23.380;2023-02-03T07:18:38;94903.94;;;0.57;98.57
39301;BME280;25019;42.626;23.380;2023-02-03T07:21:05;94910.78;;;0.58;97.34
39301;BME280;25019;42.626;23.380;2023-02-03T07:23:30;94834.66;;;0.06;95.21
39301;BME280;25019;42.626;23.380;2023-02-03T07:26:03;94919.56;;;0.65;95.29
39301;BME280;25019;42.626;23.380;2023-02-03T07:28:33;94922.47;;;0.70;94.36
39301;BME280;25019;42.626;23.380;2023-02-03T07:30:59;94927.47;;;0.80;91.85
39301;BME280;25019;42.626;23.380;2023-02-03T07:33:26;94938.13;;;0.79;91.08
39301;BME280;25019;42.626;23.380;2023-02-03T07:35:55;94929.09;;;0.81;90.79
39301;BME280;25019;42.626;23.380;2023-02-03T07:38:22;94935.72;;;0.92;90.37
39301;BME280;25019;42.626;23.380;2023-02-03T07:40:49;94931.38;;;0.84;90.01
39301;BME280;25019;42.626;23.380;2023-02-03T07:43:14;94945.84;;;0.95;90.00
39301;BME280;25019;42.626;23.380;2023-02-03T07:45:40;94952.31;;;1.08;89.08
39301;BME280;25019;42.626;23.380;2023-02-03T07:48:06;94950.34;;;1.10;88.98
39301;BME280;25019;42.626;23.380;2023-02-03T07:50:31;94824.41;;;0.28;89.32
39301;BME280;25019;42.626;23.380;2023-02-03T07:53:00;94951.97;;;1.11;89.30
39301;BME280;25019;42.626;23.380;2023-02-03T07:55:26;94947.88;;;1.08;88.87
39301;BME280;25019;42.626;23.380;2023-02-03T07:57:53;94941.75;;;1.16;87.83
39301;BME280;25019;42.626;23.380;2023-02-03T08:00:19;94953.69;;;1.18;87.11
39301;BME280;25019;42.626;23.380;2023-02-03T08:02:45;94944.56;;;1.14;87.40
39301;BME280;25019;42.626;23.380;2023-02-03T08:05:11;94937.50;;;1.15;86.75
39301;BME280;25019;42.626;23.380;2023-02-03T08:07:37;94941.50;;;1.11;87.73
39301;BME280;25019;42.626;23.380;2023-02-03T08:10:03;94936.41;;;1.09;86.95
39301;BME280;25019;42.626;23.380;2023-02-03T08:12:29;94831.16;;;0.46;86.88
39301;BME280;25019;42.626;23.380;2023-02-03T08:14:55;94941.75;;;1.16;86.31
39301;BME280;25019;42.626;23.380;2023-02-03T08:17:20;94934.25;;;1.13;87.01
39301;BME280;25019;42.626;23.380;2023-02-03T08:19:46;94944.22;;;1.17;87.02
39301;BME280;25019;42.626;23.380;2023-02-03T08:22:12;94898.31;;;0.92;86.63
39301;BME280;25019;42.626;23.380;2023-02-03T08:24:41;94912.66;;;0.96;86.24
39301;BME280;25019;42.626;23.380;2023-02-03T08:27:11;94952.50;;;1.21;83.75
39301;BME280;25019;42.626;23.380;2023-02-03T08:29:37;94951.06;;;1.18;85.02
39301;BME280;25019;42.626;23.380;2023-02-03T08:32:03;94960.47;;;1.28;83.76
39301;BME280;25019;42.626;23.380;2023-02-03T08:34:28;94865.81;;;0.86;82.38
39301;BME280;25019;42.626;23.380;2023-02-03T08:36:55;94964.50;;;1.54;82.28
39301;BME280;25019;42.626;23.380;2023-02-03T08:39:21;94964.44;;;1.62;80.73
39301;BME280;25019;42.626;23.380;2023-02-03T08:41:47;94954.16;;;1.60;80.20
39301;BME280;25019;42.626;23.380;2023-02-03T08:44:13;94958.47;;;1.53;79.64
39301;BME280;25019;42.626;23.380;2023-02-03T08:46:38;94961.44;;;1.50;78.90
39301;BME280;25019;42.626;23.380;2023-02-03T08:49:09;94949.59;;;1.39;78.05
39301;BME280;25019;42.626;23.380;2023-02-03T08:51:34;94981.38;;;1.51;78.59
39301;BME280;25019;42.626;23.380;2023-02-03T08:54:00;94977.69;;;1.45;78.93
39301;BME280;25019;42.626;23.380;2023-02-03T08:56:26;94952.66;;;1.43;79.19
39301;BME280;25019;42.626;23.380;2023-02-03T08:58:52;94978.03;;;1.81;78.58
39301;BME280;25019;42.626;23.380;2023-02-03T09:01:18;94923.50;;;1.46;78.77
39301;BME280;25019;42.626;23.380;2023-02-03T09:03:44;94987.22;;;1.76;77.95
39301;BME280;25019;42.626;23.380;2023-02-03T09:06:10;94983.03;;;1.67;78.91
39301;BME280;25019;42.626;23.380;2023-02-03T09:08:38;94979.44;;;1.68;80.56
39301;BME280;25019;42.626;23.380;2023-02-03T09:11:11;94981.50;;;1.73;80.84
39301;BME280;25019;42.626;23.380;2023-02-03T09:13:38;94963.75;;;1.83;81.04
39301;BME280;25019;42.626;23.380;2023-02-03T09:16:06;94963.75;;;1.98;81.11
39301;BME280;25019;42.626;23.380;2023-02-03T09:18:31;94898.03;;;1.25;80.62
39301;BME280;25019;42.626;23.380;2023-02-03T09:21:05;94960.03;;;1.62;82.99
39301;BME280;25019;42.626;23.380;2023-02-03T09:23:30;94947.81;;;1.70;83.74
39301;BME280;25019;42.626;23.380;2023-02-03T09:26:01;94952.53;;;1.74;83.86
39301;BME280;25019;42.626;23.380;2023-02-03T09:28:26;94934.72;;;1.85;84.08
39301;BME280;25019;42.626;23.380;2023-02-03T09:30:52;94898.59;;;1.65;83.69
39301;BME280;25019;42.626;23.380;2023-02-03T09:33:17;94957.69;;;1.98;83.99
39301;BME280;25019;42.626;23.380;2023-02-03T09:35:51;94968.88;;;1.76;83.00
39301;BME280;25019;42.626;23.380;2023-02-03T09:38:17;94966.25;;;1.76;83.30
39301;BME280;25019;42.626;23.380;2023-02-03T09:40:43;94952.97;;;1.78;80.84
39301;BME280;25019;42.626;23.380;2023-02-03T09:45:53;94899.09;;;1.15;82.10
39301;BME280;25019;42.626;23.380;2023-02-03T09:48:30;94964.69;;;1.52;81.44
39301;BME280;25019;42.626;23.380;2023-02-03T09:50:59;94963.41;;;1.48;81.46
39301;BME280;25019;42.626;23.380;2023-02-03T09:55:53;94959.53;;;1.59;77.74
39301;BME280;25019;42.626;23.380;2023-02-03T09:58:19;94948.78;;;1.54;76.79
39301;BME280;25019;42.626;23.380;2023-02-03T10:00:52;94927.63;;;1.25;76.35
39301;BME280;25019;42.626;23.380;2023-02-03T10:17:33;94959.41;;;1.90;74.90
39301;BME280;25019;42.626;23.380;2023-02-03T10:20:03;94956.66;;;2.29;72.79
39301;BME280;25019;42.626;23.380;2023-02-03T10:22:35;94968.03;;;2.51;71.75
39301;BME280;25019;42.626;23.380;2023-02-03T10:25:06;94900.81;;;2.28;72.04
39301;BME280;25019;42.626;23.380;2023-02-03T10:27:41;94958.47;;;2.80;70.85
39301;BME280;25019;42.626;23.380;2023-02-03T10:30:20;94960.69;;;2.98;70.45
39301;BME280;25019;42.626;23.380;2023-02-03T10:33:09;94954.28;;;3.07;68.45
39301;BME280;25019;42.626;23.380;2023-02-03T10:38:14;94889.28;;;2.81;64.24
39301;BME280;25019;42.626;23.380;2023-02-03T10:40:43;94950.53;;;3.17;64.30
39301;BME280;25019;42.626;23.380;2023-02-03T10:43:09;94837.88;;;2.65;60.91
39301;BME280;25019;42.626;23.380;2023-02-03T10:45:54;94940.59;;;3.34;59.95
39301;BME280;25019;42.626;23.380;2023-02-03T10:48:20;94938.97;;;3.33;60.89
39301;BME280;25019;42.626;23.380;2023-02-03T10:50:48;94953.97;;;3.39;60.60
39301;BME280;25019;42.626;23.380;2023-02-03T10:55:43;94944.97;;;3.26;62.37
39301;BME280;25019;42.626;23.380;2023-02-03T10:58:26;94958.47;;;3.23;63.11
39301;BME280;25019;42.626;23.380;2023-02-03T11:03:30;94947.88;;;2.88;63.88
39301;BME280;25019;42.626;23.380;2023-02-03T11:06:25;94953.28;;;2.87;64.26
39301;BME280;25019;42.626;23.380;2023-02-03T11:08:52;94952.41;;;2.79;63.56
39301;BME280;25019;42.626;23.380;2023-02-03T11:11:27;94957.06;;;2.99;63.18
39301;BME280;25019;42.626;23.380;2023-02-03T11:16:28;94955.47;;;3.26;58.83
39301;BME280;25019;42.626;23.380;2023-02-03T11:24:13;94941.97;;;3.29;55.69
39301;BME280;25019;42.626;23.380;2023-02-03T11:26:45;94926.81;;;3.25;55.68
39301;BME280;25019;42.626;23.380;2023-02-03T11:29:22;94933.16;;;3.37;56.57
39301;BME280;25019;42.626;23.380;2023-02-03T11:31:50;94913.84;;;3.23;57.82
39301;BME280;25019;42.626;23.380;2023-02-03T11:34:36;94920.94;;;3.01;59.73
39301;BME280;25019;42.626;23.380;2023-02-03T11:39:35;94912.94;;;2.66;58.90
39301;BME280;25019;42.626;23.380;2023-02-03T11:42:01;94912.88;;;2.59;58.57
39301;BME280;25019;42.626;23.380;2023-02-03T11:44:29;94826.75;;;2.19;59.69
39301;BME280;25019;42.626;23.380;2023-02-03T11:47:06;94884.66;;;2.83;58.60
39301;BME280;25019;42.626;23.380;2023-02-03T11:52:47;94893.88;;;3.51;55.83
39301;BME280;25019;42.626;23.380;2023-02-03T12:14:48;94892.13;;;3.65;53.43
39301;BME280;25019;42.626;23.380;2023-02-03T12:20:14;94899.69;;;3.46;50.82
39301;BME280;25019;42.626;23.380;2023-02-03T12:25:29;94894.50;;;3.53;51.71
39301;BME280;25019;42.626;23.380;2023-02-03T12:28:22;94894.28;;;3.26;51.48
39301;BME280;25019;42.626;23.380;2023-02-03T12:30:59;94871.84;;;2.73;52.89
39301;BME280;25019;42.626;23.380;2023-02-03T12:33:37;94879.41;;;2.61;52.68
39301;BME280;25019;42.626;23.380;2023-02-03T12:36:10;94884.69;;;2.46;52.23
39301;BME280;25019;42.626;23.380;2023-02-03T12:41:17;94871.50;;;2.39;52.55
39301;BME280;25019;42.626;23.380;2023-02-03T12:43:46;94849.72;;;2.39;52.88
39301;BME280;25019;42.626;23.380;2023-02-03T12:46:25;94873.91;;;2.56;53.26
39301;BME280;25019;42.626;23.380;2023-02-03T12:48:59;94854.28;;;2.74;53.16
39301;BME280;25019;42.626;23.380;2023-02-03T12:51:44;94732.25;;;2.28;52.50
39301;BME280;25019;42.626;23.380;2023-02-03T12:56:59;94785.41;;;2.65;52.75
39301;BME280;25019;42.626;23.380;2023-02-03T12:59:28;94848.00;;;2.96;53.81
39301;BME280;25019;42.626;23.380;2023-02-03T13:02:02;94841.16;;;2.74;54.77
39301;BME280;25019;42.626;23.380;2023-02-03T13:04:46;94850.47;;;2.98;54.60
39301;BME280;25019;42.626;23.380;2023-02-03T13:07:24;94854.47;;;2.94;54.74
39301;BME280;25019;42.626;23.380;2023-02-03T13:10:37;94856.09;;;2.95;55.15
39301;BME280;25019;42.626;23.380;2023-02-03T13:13:10;94850.25;;;2.99;54.74
39301;BME280;25019;42.626;23.380;2023-02-03T13:15:43;94849.63;;;2.97;54.63
39301;BME280;25019;42.626;23.380;2023-02-03T13:18:18;94862.75;;;2.97;55.41
39301;BME280;25019;42.626;23.380;2023-02-03T13:20:45;94852.13;;;3.06;56.33
39301;BME280;25019;42.626;23.380;2023-02-03T13:23:13;94848.72;;;3.05;57.28
39301;BME280;25019;42.626;23.380;2023-02-03T13:26:04;94718.47;;;2.19;57.13
39301;BME280;25019;42.626;23.380;2023-02-03T13:34:28;94862.47;;;2.64;59.69
39301;BME280;25019;42.626;23.380;2023-02-03T13:40:04;94852.97;;;2.41;61.16
39301;BME280;25019;42.626;23.380;2023-02-03T13:42:46;94854.41;;;2.44;61.84
39301;BME280;25019;42.626;23.380;2023-02-03T13:47:54;94780.75;;;2.17;60.23
39301;BME280;25019;42.626;23.380;2023-02-03T13:50:27;94834.31;;;2.51;60.73
39301;BME280;25019;42.626;23.380;2023-02-03T13:52:59;94839.59;;;2.58;60.68
39301;BME280;25019;42.626;23.380;2023-02-03T13:55:34;94829.63;;;2.46;60.88
39301;BME280;25019;42.626;23.380;2023-02-03T13:58:01;94838.75;;;2.50;61.32
39301;BME280;25019;42.626;23.380;2023-02-03T14:06:04;94848.53;;;2.05;63.12
39301;BME280;25019;42.626;23.380;2023-02-03T14:16:40;94860.16;;;2.32;64.38
39301;BME280;25019;42.626;23.380;2023-02-03T14:19:11;94866.50;;;2.23;64.68
39301;BME280;25019;42.626;23.380;2023-02-03T14:24:09;94866.28;;;2.24;65.19
39301;BME280;25019;42.626;23.380;2023-02-03T14:29:07;94859.69;;;2.29;64.33
39301;BME280;25019;42.626;23.380;2023-02-03T14:32:12;94845.88;;;2.20;65.14
39301;BME280;25019;42.626;23.380;2023-02-03T14:34:43;94861.25;;;2.23;65.64
39301;BME280;25019;42.626;23.380;2023-02-03T14:45:12;94868.06;;;2.02;64.77
39301;BME280;25019;42.626;23.380;2023-02-03T14:47:56;94789.56;;;1.42;64.61
39301;BME280;25019;42.626;23.380;2023-02-03T14:50:37;94838.31;;;1.73;64.80
39301;BME280;25019;42.626;23.380;2023-02-03T14:58:31;94856.16;;;1.85;61.90
39301;BME280;25019;42.626;23.380;2023-02-03T15:00:59;94844.81;;;1.77;60.60
39301;BME280;25019;42.626;23.380;2023-02-03T15:03:25;94843.53;;;1.73;60.45
39301;BME280;25019;42.626;23.380;2023-02-03T15:06:02;94837.56;;;1.79;60.97
39301;BME280;25019;42.626;23.380;2023-02-03T15:08:44;94832.88;;;1.75;60.97
39301;BME280;25019;42.626;23.380;2023-02-03T15:11:27;94828.00;;;1.72;62.05
39301;BME280;25019;42.626;23.380;2023-02-03T15:13:55;94823.88;;;1.62;63.02